createdAt,value
2022-11-07T00:01:18.112Z,6.70
2022-11-07T00:03:45.449Z,6.80
2022-11-07T00:06:12.769Z,6.80
2022-11-07T00:08:39.698Z,6.70
2022-11-07T00:11:06.950Z,6.70
2022-11-07T00:13:34.487Z,6.70
2022-11-07T00:16:07.302Z,6.70
2022-11-07T00:18:34.754Z,6.70
2022-11-07T00:21:03.423Z,6.70
2022-11-07T00:23:30.649Z,6.60
2022-11-07T00:26:12.894Z,6.60
2022-11-07T00:28:42.538Z,6.50
2022-11-07T00:31:11.014Z,6.50
2022-11-07T00:33:37.962Z,6.40
2022-11-07T00:36:05.651Z,6.40
2022-11-07T00:38:32.562Z,6.50
2022-11-07T00:41:02.074Z,6.70
2022-11-07T00:43:29.998Z,6.70
2022-11-07T00:45:57.510Z,6.70
2022-11-07T00:48:24.437Z,6.70
2022-11-07T00:50:51.420Z,6.70
2022-11-07T00:53:18.494Z,6.60
2022-11-07T00:55:45.947Z,6.50
2022-11-07T00:58:14.343Z,6.40
2022-11-07T01:00:42.173Z,6.40
2022-11-07T01:03:28.107Z,6.30
2022-11-07T01:06:03.384Z,6.40
2022-11-07T01:08:31.506Z,6.40
2022-11-07T01:10:59.573Z,6.50
2022-11-07T01:13:27.185Z,6.40
2022-11-07T01:15:54.282Z,6.30
2022-11-07T01:18:21.329Z,6.30
2022-11-07T01:20:49.722Z,6.20
2022-11-07T01:23:18.007Z,6.40
2022-11-07T01:25:45.841Z,6.60
2022-11-07T01:28:12.803Z,6.50
2022-11-07T01:30:44.287Z,6.50
2022-11-07T01:33:12.071Z,6.50
2022-11-07T01:35:40.468Z,6.40
2022-11-07T01:38:07.863Z,6.30
2022-11-07T01:41:00.085Z,6.30
2022-11-07T01:43:49.527Z,6.30
2022-11-07T01:46:17.640Z,6.30
2022-11-07T01:48:53.453Z,6.30
2022-11-07T01:51:22.238Z,6.20
2022-11-07T01:53:49.937Z,6.20
2022-11-07T01:56:19.103Z,6.20
2022-11-07T01:58:47.763Z,6.20
2022-11-07T02:01:15.564Z,6.20
2022-11-07T02:03:42.734Z,6.20
2022-11-07T02:06:18.173Z,6.30
2022-11-07T02:08:46.793Z,6.40
2022-11-07T02:11:14.197Z,6.30
2022-11-07T02:13:41.128Z,6.30
2022-11-07T02:16:08.356Z,6.20
2022-11-07T02:18:37.087Z,6.20
2022-11-07T02:21:15.302Z,6.20
2022-11-07T02:24:01.540Z,6.20
2022-11-07T02:26:29.375Z,6.20
2022-11-07T02:32:17.925Z,6.00
2022-11-07T02:34:45.502Z,6.00
2022-11-07T02:40:21.720Z,5.90
2022-11-07T02:42:48.912Z,5.90
2022-11-07T02:45:44.444Z,5.80
2022-11-07T02:48:22.025Z,5.70
2022-11-07T02:54:06.076Z,5.90
2022-11-07T02:56:40.763Z,6.00
2022-11-07T02:59:07.978Z,6.10
2022-11-07T03:01:53.336Z,6.10
2022-11-07T03:04:25.062Z,6.00
2022-11-07T03:06:52.385Z,6.10
2022-11-07T03:09:19.285Z,6.60
2022-11-07T03:11:46.169Z,6.70
2022-11-07T03:14:13.137Z,6.70
2022-11-07T03:16:40.108Z,6.70
2022-11-07T03:19:07.074Z,6.60
2022-11-07T03:21:34.035Z,6.40
2022-11-07T03:24:00.874Z,6.40
2022-11-07T03:26:27.875Z,6.30
2022-11-07T03:28:54.932Z,6.20
2022-11-07T03:31:22.612Z,6.20
2022-11-07T03:33:50.869Z,6.10
2022-11-07T03:42:05.253Z,5.80
2022-11-07T03:44:32.245Z,6.00
2022-11-07T03:49:43.300Z,6.10
2022-11-07T03:55:18.708Z,6.10
2022-11-07T03:57:46.555Z,6.10
2022-11-07T04:00:49.835Z,6.10
2022-11-07T04:06:03.988Z,6.50
2022-11-07T04:08:32.257Z,6.60
2022-11-07T04:10:59.366Z,6.70
2022-11-07T04:14:00.379Z,6.80
2022-11-07T04:19:31.089Z,6.60
2022-11-07T04:21:58.161Z,6.60
2022-11-07T04:24:25.768Z,6.50
2022-11-07T04:29:57.210Z,6.30
2022-11-07T04:32:25.607Z,6.20
2022-11-07T04:34:53.505Z,6.10
2022-11-07T04:45:50.260Z,5.90
2022-11-07T04:51:07.342Z,5.80
2022-11-07T04:56:18.290Z,5.70
2022-11-07T04:58:45.535Z,5.70
2022-11-07T05:15:54.993Z,5.50
2022-11-07T05:26:30.011Z,5.50
2022-11-07T05:45:17.072Z,5.60
2022-11-07T05:50:30.304Z,5.90
2022-11-07T05:58:34.742Z,5.90
2022-11-07T06:03:53.497Z,5.80
2022-11-07T06:26:31.539Z,6.00
2022-11-07T06:39:41.029Z,5.80
2022-11-07T07:04:42.502Z,6.10
2022-11-07T07:07:09.780Z,6.10
2022-11-07T07:12:23.064Z,6.20
2022-11-07T07:14:50.223Z,6.10
2022-11-07T07:17:37.471Z,6.10
2022-11-07T07:22:57.028Z,6.10
2022-11-07T07:25:27.754Z,6.10
2022-11-07T07:27:55.011Z,6.20
2022-11-07T07:30:22.165Z,6.20
2022-11-07T07:36:05.131Z,6.10
2022-11-07T07:38:33.189Z,6.10
2022-11-07T07:41:07.076Z,6.10
2022-11-07T07:43:35.362Z,6.00
2022-11-07T07:46:04.976Z,6.10
2022-11-07T07:48:32.495Z,6.10
2022-11-07T07:53:43.586Z,6.10
2022-11-07T07:59:11.651Z,6.00
2022-11-07T08:04:46.721Z,6.00
2022-11-07T08:07:13.652Z,6.10
2022-11-07T08:09:42.084Z,6.00
2022-11-07T08:12:09.137Z,6.00
2022-11-07T08:14:36.902Z,6.10
2022-11-07T08:17:04.125Z,6.10
2022-11-07T08:19:31.475Z,6.10
2022-11-07T08:21:58.952Z,6.10
2022-11-07T08:27:34.464Z,6.20
2022-11-07T08:30:02.116Z,6.30
2022-11-07T08:32:30.064Z,6.40
2022-11-07T08:34:56.952Z,6.50
2022-11-07T08:37:23.851Z,6.60
2022-11-07T08:39:50.775Z,6.60
2022-11-07T08:42:17.781Z,6.60
2022-11-07T08:44:45.153Z,6.80
2022-11-07T08:47:12.056Z,7.30
2022-11-07T08:49:39.199Z,7.50
2022-11-07T08:52:06.101Z,7.70
2022-11-07T08:54:33.770Z,7.80
2022-11-07T08:57:00.711Z,7.80
2022-11-07T08:59:29.325Z,7.80
2022-11-07T09:02:38.911Z,7.80
2022-11-07T09:04:43.331Z,7.80
2022-11-07T09:07:10.324Z,7.80
2022-11-07T09:09:37.196Z,7.80
2022-11-07T09:12:04.322Z,7.80
2022-11-07T09:14:31.383Z,7.80
2022-11-07T09:16:58.670Z,7.80
2022-11-07T09:19:25.598Z,7.80
2022-11-07T09:21:52.474Z,7.80
2022-11-07T09:24:19.464Z,7.80
2022-11-07T09:26:46.346Z,8.10
2022-11-07T09:29:13.344Z,8.50
2022-11-07T09:31:40.252Z,8.50
2022-11-07T09:34:07.753Z,8.70
2022-11-07T09:36:34.678Z,9.00
2022-11-07T09:39:01.674Z,9.10
2022-11-07T09:41:46.504Z,9.20
2022-11-07T09:44:19.262Z,9.30
2022-11-07T09:47:17.186Z,9.50
2022-11-07T09:49:48.394Z,9.40
2022-11-07T09:52:38.718Z,9.60
2022-11-07T09:55:45.699Z,9.60
2022-11-07T09:58:34.294Z,9.60
2022-11-07T10:01:06.940Z,9.50
2022-11-07T10:03:36.730Z,9.50
2022-11-07T10:06:09.849Z,9.60
2022-11-07T10:08:58.104Z,9.60
2022-11-07T10:11:37.171Z,9.60
2022-11-07T10:14:23.659Z,9.60
2022-11-07T10:17:20.998Z,9.70
2022-11-07T10:19:47.882Z,9.70
2022-11-07T10:22:23.751Z,9.80
2022-11-07T10:24:59.553Z,9.80
2022-11-07T10:29:56.113Z,10.00
2022-11-07T10:32:41.683Z,10.00
2022-11-07T10:35:11.495Z,10.00
2022-11-07T10:37:38.672Z,10.00
2022-11-07T10:40:19.925Z,10.00
2022-11-07T10:42:48.203Z,10.00
2022-11-07T10:45:17.374Z,9.90
2022-11-07T10:47:59.531Z,9.90
2022-11-07T10:50:27.713Z,9.90
2022-11-07T10:52:56.760Z,9.90
2022-11-07T10:55:25.685Z,10.00
2022-11-07T10:57:57.744Z,10.00
2022-11-07T11:00:30.474Z,10.00
2022-11-07T11:02:58.904Z,10.00
2022-11-07T11:05:33.775Z,10.00
2022-11-07T11:08:20.396Z,10.10
2022-11-07T11:10:48.239Z,10.10
2022-11-07T11:13:32.915Z,10.10
2022-11-07T11:16:13.524Z,10.10
2022-11-07T11:18:53.516Z,10.10
2022-11-07T11:21:20.900Z,10.10
2022-11-07T11:23:48.784Z,10.20
2022-11-07T11:26:35.432Z,10.10
2022-11-07T11:29:17.339Z,10.10
2022-11-07T11:31:50.634Z,10.00
2022-11-07T11:34:19.629Z,10.00
2022-11-07T11:36:56.853Z,10.10
2022-11-07T11:39:35.584Z,10.00
2022-11-07T11:42:05.029Z,10.00
2022-11-07T11:44:39.772Z,10.10
2022-11-07T11:47:27.036Z,10.00
2022-11-07T11:50:05.231Z,10.10
2022-11-07T11:52:32.064Z,10.10
2022-11-07T11:55:00.513Z,10.20
2022-11-07T11:57:49.711Z,10.30
2022-11-07T12:00:19.230Z,10.40
2022-11-07T12:02:59.252Z,10.40
2022-11-07T12:05:47.395Z,10.50
2022-11-07T12:08:42.798Z,10.50
2022-11-07T12:11:16.816Z,10.50
2022-11-07T12:13:49.387Z,10.50
2022-11-07T12:16:26.395Z,10.50
2022-11-07T12:19:21.118Z,10.60
2022-11-07T12:22:16.484Z,10.70
2022-11-07T12:25:04.142Z,10.70
2022-11-07T12:27:59.459Z,10.80
2022-11-07T12:30:43.050Z,10.80
2022-11-07T12:33:38.217Z,10.80
2022-11-07T12:36:45.721Z,10.90
2022-11-07T12:39:29.448Z,10.90
2022-11-07T12:42:08.897Z,10.90
2022-11-07T12:45:03.655Z,10.90
2022-11-07T12:47:55.499Z,10.90
2022-11-07T12:50:55.878Z,10.90
2022-11-07T12:53:37.989Z,11.00
2022-11-07T12:56:20.111Z,11.00
2022-11-07T12:58:48.465Z,10.90
2022-11-07T13:01:20.124Z,10.90
2022-11-07T13:04:24.513Z,11.00
2022-11-07T13:07:17.112Z,11.00
2022-11-07T13:10:01.817Z,11.10
2022-11-07T13:12:36.481Z,11.10
2022-11-07T13:15:11.204Z,11.10
2022-11-07T13:17:44.087Z,11.10
2022-11-07T13:20:23.343Z,11.20
2022-11-07T13:22:55.693Z,11.20
2022-11-07T13:25:25.414Z,11.20
2022-11-07T13:27:55.430Z,11.20
2022-11-07T13:30:32.166Z,11.30
2022-11-07T13:33:00.601Z,11.30
2022-11-07T13:35:30.231Z,11.30
2022-11-07T13:38:08.676Z,11.30
2022-11-07T13:41:12.062Z,11.30
2022-11-07T13:43:43.183Z,11.30
2022-11-07T13:46:18.017Z,11.30
2022-11-07T13:48:55.660Z,11.30
2022-11-07T13:51:53.038Z,11.40
2022-11-07T13:54:27.393Z,11.30
2022-11-07T13:57:06.677Z,11.30
2022-11-07T14:00:05.340Z,11.40
2022-11-07T14:02:35.077Z,11.40
2022-11-07T14:07:49.476Z,11.50
2022-11-07T14:10:32.697Z,11.50
2022-11-07T14:13:08.143Z,11.60
2022-11-07T14:15:43.474Z,11.60
2022-11-07T14:18:18.983Z,11.70
2022-11-07T14:20:51.733Z,11.60
2022-11-07T14:23:22.459Z,11.70
2022-11-07T14:26:16.732Z,11.70
2022-11-07T14:28:44.475Z,11.80
2022-11-07T14:31:30.807Z,11.70
2022-11-07T14:34:01.074Z,11.80
2022-11-07T14:36:29.287Z,11.70
2022-11-07T14:39:11.434Z,11.80
2022-11-07T14:41:44.814Z,11.80
2022-11-07T14:44:22.907Z,11.80
2022-11-07T14:46:53.143Z,11.90
2022-11-07T14:49:33.660Z,11.90
2022-11-07T14:52:01.014Z,12.00
2022-11-07T14:54:36.850Z,12.00
2022-11-07T14:57:04.247Z,12.00
2022-11-07T14:59:35.389Z,12.00
2022-11-07T15:02:30.686Z,12.10
2022-11-07T15:05:06.696Z,12.00
2022-11-07T15:07:47.045Z,12.00
2022-11-07T15:10:24.769Z,12.00
2022-11-07T15:12:54.750Z,12.00
2022-11-07T15:15:25.916Z,12.00
2022-11-07T15:17:55.472Z,12.00
2022-11-07T15:20:32.146Z,12.00
2022-11-07T15:23:05.038Z,12.10
2022-11-07T15:26:03.362Z,12.10
2022-11-07T15:28:44.430Z,12.10
2022-11-07T15:31:26.719Z,12.20
2022-11-07T15:33:55.110Z,12.10
2022-11-07T15:36:22.675Z,12.10
2022-11-07T15:38:51.185Z,12.10
2022-11-07T15:41:18.627Z,12.20
2022-11-07T15:43:45.743Z,12.10
2022-11-07T15:46:42.869Z,12.20
2022-11-07T15:49:12.607Z,12.20
2022-11-07T15:51:39.797Z,12.20
2022-11-07T15:54:12.900Z,12.30
2022-11-07T15:56:40.940Z,12.30
2022-11-07T15:59:19.702Z,12.30
2022-11-07T16:01:47.808Z,12.20
2022-11-07T16:04:15.269Z,12.20
2022-11-07T16:06:46.164Z,12.20
2022-11-07T16:09:17.708Z,12.20
2022-11-07T16:11:45.350Z,12.20
2022-11-07T16:14:42.363Z,12.20
2022-11-07T16:17:04.153Z,12.20
2022-11-07T16:19:31.468Z,12.30
2022-11-07T16:21:58.373Z,12.20
2022-11-07T16:24:25.224Z,12.20
2022-11-07T16:26:52.520Z,12.30
2022-11-07T16:29:19.411Z,12.30
2022-11-07T16:31:46.455Z,12.30
2022-11-07T16:34:13.388Z,12.30
2022-11-07T16:36:40.690Z,12.30
2022-11-07T16:39:14.665Z,12.30
2022-11-07T16:41:41.600Z,12.30
2022-11-07T16:44:08.583Z,12.20
2022-11-07T16:46:39.021Z,12.30
2022-11-07T16:49:26.255Z,12.30
2022-11-07T16:51:53.137Z,12.20
2022-11-07T16:54:20.008Z,12.20
2022-11-07T16:56:53.075Z,12.20
2022-11-07T16:59:22.908Z,12.20
2022-11-07T17:01:51.478Z,12.20
2022-11-07T17:04:19.027Z,12.20
2022-11-07T17:06:47.740Z,12.20
2022-11-07T17:09:20.597Z,12.20
2022-11-07T17:11:47.615Z,12.20
2022-11-07T17:14:14.742Z,12.30
2022-11-07T17:16:46.483Z,12.30
2022-11-07T17:19:13.970Z,12.30
2022-11-07T17:21:46.432Z,12.20
2022-11-07T17:24:13.959Z,12.20
2022-11-07T17:26:40.892Z,12.10
2022-11-07T17:29:12.538Z,12.10
2022-11-07T17:31:41.250Z,12.10
2022-11-07T17:34:08.655Z,12.10
2022-11-07T17:36:40.428Z,12.00
2022-11-07T17:39:11.930Z,12.00
2022-11-07T17:41:40.850Z,12.10
2022-11-07T17:44:08.125Z,12.00
2022-11-07T17:46:36.687Z,12.10
2022-11-07T17:49:07.235Z,12.00
2022-11-07T17:51:39.562Z,12.10
2022-11-07T17:54:07.059Z,12.10
2022-11-07T17:56:34.629Z,12.20
2022-11-07T17:59:07.299Z,12.20
2022-11-07T18:01:36.878Z,12.30
2022-11-07T18:04:06.227Z,12.20
2022-11-07T18:06:38.489Z,12.30
2022-11-07T18:09:07.634Z,12.20
2022-11-07T18:11:35.433Z,12.30
2022-11-07T18:14:02.751Z,12.30
2022-11-07T18:16:36.178Z,12.30
2022-11-07T18:19:04.428Z,12.30
2022-11-07T18:21:31.915Z,12.30
2022-11-07T18:23:58.975Z,12.30
2022-11-07T18:26:31.231Z,12.20
2022-11-07T18:29:02.939Z,12.20
2022-11-07T18:31:29.965Z,12.20
2022-11-07T18:34:01.864Z,12.10
2022-11-07T18:36:30.802Z,12.10
2022-11-07T18:39:30.825Z,12.20
2022-11-07T18:41:58.273Z,12.20
2022-11-07T18:44:25.389Z,12.20
2022-11-07T18:46:52.240Z,12.20
2022-11-07T18:49:19.852Z,12.30
2022-11-07T18:51:46.874Z,12.30
2022-11-07T18:54:14.329Z,12.30
2022-11-07T18:56:42.496Z,12.40
2022-11-07T18:59:10.454Z,12.40
2022-11-07T19:01:37.752Z,12.40
2022-11-07T19:04:05.994Z,12.40
2022-11-07T19:06:33.769Z,12.40
2022-11-07T19:09:01.100Z,12.30
2022-11-07T19:11:30.243Z,12.40
2022-11-07T19:14:00.936Z,12.40
2022-11-07T19:16:28.665Z,12.40
2022-11-07T19:18:55.565Z,12.40
2022-11-07T19:21:23.664Z,12.50
2022-11-07T19:23:51.086Z,12.50
2022-11-07T19:26:21.746Z,12.50
2022-11-07T19:28:48.936Z,12.40
2022-11-07T19:31:16.775Z,12.50
2022-11-07T19:33:44.982Z,12.60
2022-11-07T19:36:21.142Z,12.60
2022-11-07T19:38:49.708Z,12.60
2022-11-07T19:41:18.171Z,12.60
2022-11-07T19:43:50.136Z,12.60
2022-11-07T19:46:20.174Z,12.60
2022-11-07T19:48:47.867Z,12.60
2022-11-07T19:51:21.287Z,12.60
2022-11-07T19:53:54.014Z,12.50
2022-11-07T19:56:21.513Z,12.50
2022-11-07T19:58:48.731Z,12.50
2022-11-07T20:01:21.235Z,12.50
2022-11-07T20:03:50.920Z,12.50
2022-11-07T20:06:21.808Z,12.50
2022-11-07T20:08:49.464Z,12.50
2022-11-07T20:11:18.815Z,12.50
2022-11-07T20:13:46.242Z,12.40
2022-11-07T20:16:13.728Z,12.40
2022-11-07T20:18:41.690Z,12.40
2022-11-07T20:21:17.619Z,12.40
2022-11-07T20:23:45.935Z,12.40
2022-11-07T20:26:16.325Z,12.30
2022-11-07T20:28:43.367Z,12.30
2022-11-07T20:31:15.216Z,12.30
2022-11-07T20:33:42.550Z,12.30
2022-11-07T20:36:13.091Z,12.30
2022-11-07T20:38:41.016Z,12.30
2022-11-07T20:41:09.275Z,12.30
2022-11-07T20:43:36.339Z,12.40
2022-11-07T20:46:07.679Z,12.40
2022-11-07T20:48:35.641Z,12.50
2022-11-07T20:51:14.645Z,12.50
2022-11-07T20:53:48.496Z,12.50
2022-11-07T20:56:18.046Z,12.60
2022-11-07T20:58:45.221Z,12.60
2022-11-07T21:01:20.991Z,12.60
2022-11-07T21:03:49.040Z,12.60
2022-11-07T21:06:16.095Z,12.60
2022-11-07T21:08:48.377Z,12.60
2022-11-07T21:11:15.820Z,12.60
2022-11-07T21:13:46.632Z,12.60
2022-11-07T21:16:18.670Z,12.60
2022-11-07T21:18:45.992Z,12.60
2022-11-07T21:21:16.597Z,12.60
2022-11-07T21:23:43.656Z,12.60
2022-11-07T21:26:16.640Z,12.60
2022-11-07T21:28:43.737Z,12.60
2022-11-07T21:31:15.251Z,12.60
2022-11-07T21:33:42.471Z,12.60
2022-11-07T21:36:15.114Z,12.60
2022-11-07T21:38:41.993Z,12.60
2022-11-07T21:41:10.137Z,12.60
2022-11-07T21:43:37.556Z,12.60
2022-11-07T21:46:10.435Z,12.60
2022-11-07T21:48:38.270Z,12.60
2022-11-07T21:51:12.262Z,12.60
2022-11-07T21:53:39.896Z,12.50
2022-11-07T21:56:08.120Z,12.50
2022-11-07T21:58:35.190Z,12.40
2022-11-07T22:01:03.957Z,12.40
2022-11-07T22:04:03.859Z,12.40
2022-11-07T22:06:20.140Z,12.40
2022-11-07T22:08:48.850Z,12.40
2022-11-07T22:11:16.698Z,12.30
2022-11-07T22:13:43.955Z,12.30
2022-11-07T22:16:19.392Z,12.30
2022-11-07T22:18:47.907Z,12.30
2022-11-07T22:21:17.640Z,12.30
2022-11-07T22:23:44.710Z,12.30
2022-11-07T22:26:15.452Z,12.30
2022-11-07T22:28:46.053Z,12.30
2022-11-07T22:31:19.325Z,12.30
2022-11-07T22:33:47.201Z,12.30
2022-11-07T22:36:14.415Z,12.30
2022-11-07T22:38:41.952Z,12.30
2022-11-07T22:41:12.480Z,12.30
2022-11-07T22:43:39.597Z,12.30
2022-11-07T22:46:09.237Z,12.30
2022-11-07T22:48:36.524Z,12.30
2022-11-07T22:51:09.000Z,12.30
2022-11-07T22:53:36.593Z,12.30
2022-11-07T22:56:17.202Z,12.30
2022-11-07T22:58:44.657Z,12.30
2022-11-07T23:01:20.757Z,12.30
2022-11-07T23:03:48.629Z,12.40
2022-11-07T23:06:17.060Z,12.30
2022-11-07T23:08:44.430Z,12.30
2022-11-07T23:14:05.455Z,12.40
2022-11-07T23:16:36.110Z,12.40
2022-11-07T23:19:06.218Z,12.30
2022-11-07T23:21:33.308Z,12.30
2022-11-07T23:24:00.775Z,12.30
2022-11-07T23:26:33.897Z,12.40
2022-11-07T23:29:23.213Z,12.40
2022-11-07T23:31:51.857Z,12.40
2022-11-07T23:34:20.158Z,12.40
2022-11-07T23:36:50.275Z,12.40
2022-11-07T23:39:19.602Z,12.40
2022-11-07T23:41:46.820Z,12.40
2022-11-07T23:44:15.033Z,12.40
2022-11-07T23:47:01.111Z,12.40
2022-11-07T23:49:57.121Z,12.40
2022-11-07T23:52:24.024Z,12.40
2022-11-07T23:55:09.486Z,12.40
2022-11-07T23:57:57.678Z,12.50
